createdAt,value
2018-08-17T12:51:59.827Z,15.40
2018-08-17T12:52:59.821Z,14.40
2018-08-17T12:53:59.785Z,71.00
2018-08-17T12:54:59.882Z,84.90
2018-08-17T12:55:59.713Z,13.90
2018-08-17T12:56:59.678Z,6.50
2018-08-17T12:57:59.735Z,6.60
2018-08-17T12:58:59.672Z,32.00
2018-08-17T12:59:59.657Z,12.40
2018-08-17T13:00:59.665Z,7.60
2018-08-17T13:01:59.628Z,4.30
2018-08-17T13:02:59.630Z,4.80
2018-08-17T13:03:59.616Z,3.70
2018-08-17T13:04:59.601Z,6.20
2018-08-17T13:05:59.610Z,5.70
2018-08-17T13:06:59.585Z,4.70
2018-08-17T13:07:59.564Z,8.30
2018-08-17T13:08:59.583Z,4.90
2018-08-17T13:09:59.555Z,4.40
2018-08-17T13:11:00.140Z,5.00
2018-08-17T13:11:59.543Z,2.90
2018-08-17T13:12:59.521Z,6.30
2018-08-17T13:13:59.531Z,3.60
2018-08-17T13:14:59.493Z,3.70
2018-08-17T13:15:59.478Z,4.50
2018-08-17T13:16:59.465Z,7.10
2018-08-17T13:17:59.565Z,3.60
2018-08-17T13:18:59.467Z,3.40
2018-08-17T13:19:59.452Z,3.10
2018-08-17T13:20:59.460Z,3.70
2018-08-17T13:21:59.422Z,7.90
2018-08-17T13:22:59.431Z,4.40
2018-08-17T13:23:59.427Z,3.00
2018-08-17T13:24:59.395Z,6.50
2018-08-17T13:27:09.805Z,3.10
2018-08-17T13:28:09.672Z,3.00
2018-08-17T13:29:09.642Z,5.10
2018-08-17T13:30:09.610Z,3.50
2018-08-17T13:31:09.643Z,7.90
2018-08-17T13:32:09.569Z,2.80
2018-08-17T13:33:09.608Z,3.00
2018-08-17T13:34:09.588Z,5.90
2018-08-17T13:35:09.553Z,3.50
2018-08-17T13:36:09.650Z,4.40
2018-08-17T13:37:09.551Z,3.00
2018-08-17T13:38:09.540Z,5.20
2018-08-17T13:39:09.490Z,3.30
2018-08-17T13:40:09.482Z,5.10
2018-08-17T13:41:09.488Z,5.40
2018-08-17T13:42:09.571Z,3.70
2018-08-17T13:43:09.485Z,3.10
2018-08-17T13:44:09.468Z,14.20
2018-08-17T13:45:09.451Z,4.10
2018-08-17T13:46:09.420Z,3.00
2018-08-17T13:47:09.456Z,3.70
2018-08-17T13:48:09.455Z,3.20
2018-08-17T13:49:09.413Z,8.00
2018-08-17T13:50:09.374Z,7.90
2018-08-17T13:51:09.355Z,8.60
2018-08-17T13:52:09.425Z,3.30
2018-08-17T13:53:09.364Z,9.90
2018-08-17T13:54:09.347Z,5.80
2018-08-17T13:55:09.336Z,5.40
2018-08-17T13:56:09.311Z,3.40
2018-08-17T13:57:09.349Z,7.30
2018-08-17T13:58:09.324Z,10.60
2018-08-17T13:59:09.482Z,4.90
2018-08-17T14:00:09.274Z,3.20
2018-08-17T14:01:09.245Z,4.30
2018-08-17T14:02:09.290Z,3.70
2018-08-17T14:03:09.220Z,4.10
2018-08-17T14:04:09.219Z,4.40
2018-08-17T14:05:09.224Z,10.10
2018-08-17T14:06:09.194Z,20.10
2018-08-17T14:07:09.174Z,5.70
2018-08-17T14:08:09.235Z,7.40
2018-08-17T14:09:09.164Z,5.80
2018-08-17T14:10:09.256Z,3.40
2018-08-17T14:11:09.143Z,4.40
2018-08-17T14:12:09.124Z,5.80
2018-08-17T14:13:09.121Z,4.10
2018-08-17T14:14:09.111Z,3.40
2018-08-17T14:15:09.092Z,4.50
2018-08-17T14:16:09.101Z,5.20
2018-08-17T14:17:09.079Z,3.20
2018-08-17T14:18:09.053Z,3.00
2018-08-17T14:19:09.060Z,2.90
2018-08-17T14:20:09.041Z,3.90
2018-08-17T14:21:09.030Z,3.60
2018-08-17T14:22:09.089Z,28.70
2018-08-17T14:23:09.036Z,6.10
2018-08-17T14:24:09.012Z,3.40
2018-08-17T14:25:08.981Z,5.20
2018-08-17T14:26:08.973Z,4.40
2018-08-17T14:27:08.968Z,3.60
2018-08-17T14:28:09.097Z,3.50
2018-08-17T14:29:08.952Z,5.10
2018-08-17T14:30:08.931Z,5.20
2018-08-17T14:31:08.924Z,7.00
2018-08-17T14:32:08.913Z,5.20
2018-08-17T14:33:08.908Z,7.00
2018-08-17T14:34:08.925Z,3.10
2018-08-17T14:35:08.889Z,5.60
2018-08-17T14:36:08.872Z,7.80
2018-08-17T14:37:08.861Z,3.70
2018-08-17T14:38:08.846Z,6.00
2018-08-17T14:39:08.844Z,3.40
2018-08-17T14:40:08.845Z,5.90
2018-08-17T14:41:15.393Z,7.10
2018-08-17T14:42:08.809Z,3.40
2018-08-17T14:43:08.796Z,5.60
2018-08-17T14:44:08.798Z,12.90
2018-08-17T14:45:08.777Z,5.80
2018-08-17T14:46:08.786Z,4.10
2018-08-17T14:47:08.756Z,4.80
2018-08-17T14:48:08.744Z,5.00
2018-08-17T14:49:08.746Z,5.80
2018-08-17T14:50:08.721Z,8.60
2018-08-17T14:51:08.710Z,3.10
2018-08-17T14:52:08.734Z,3.10
2018-08-17T14:53:08.700Z,4.40
2018-08-17T14:54:08.698Z,16.40
2018-08-17T14:55:08.664Z,13.50
2018-08-17T14:56:08.657Z,7.10
2018-08-17T14:57:08.644Z,7.80
2018-08-17T14:58:08.668Z,12.60
2018-08-17T14:59:08.625Z,6.90
2018-08-17T15:00:08.650Z,3.60
2018-08-17T15:01:08.626Z,5.60
2018-08-17T15:02:08.595Z,4.30
2018-08-17T15:03:08.577Z,5.60
2018-08-17T15:04:08.587Z,8.20
2018-08-17T15:05:08.565Z,6.90
2018-08-17T15:06:08.560Z,4.10
2018-08-17T15:07:08.536Z,4.60
2018-08-17T15:08:08.532Z,3.60
2018-08-17T15:09:08.519Z,7.70
2018-08-17T15:10:08.530Z,21.50
2018-08-17T15:11:08.508Z,9.60
2018-08-17T15:12:08.481Z,4.20
2018-08-17T15:13:08.591Z,6.90
2018-08-17T15:14:08.465Z,3.00
2018-08-17T15:15:08.453Z,5.90
2018-08-17T15:16:08.472Z,8.90
2018-08-17T15:17:08.427Z,5.90
2018-08-17T15:18:08.418Z,6.70
2018-08-17T15:19:08.414Z,8.70
2018-08-17T15:20:08.455Z,7.20
2018-08-17T15:21:08.400Z,7.80
2018-08-17T15:22:08.394Z,11.00
2018-08-17T15:23:09.350Z,8.90
2018-08-17T15:24:08.353Z,3.20
2018-08-17T15:25:08.345Z,6.20
2018-08-17T15:26:08.339Z,28.40
2018-08-17T15:27:08.339Z,51.90
2018-08-17T15:28:08.300Z,4.40
2018-08-17T15:29:08.307Z,22.80
2018-08-17T15:30:08.293Z,36.50
2018-08-17T15:31:08.292Z,12.00
2018-08-17T15:32:08.267Z,29.30
2018-08-17T15:33:08.297Z,18.10
2018-08-17T15:34:08.253Z,7.00
2018-08-17T15:35:08.238Z,4.70
2018-08-17T15:36:08.239Z,6.40
2018-08-17T15:37:08.214Z,7.50
2018-08-17T15:38:08.204Z,13.80
2018-08-17T15:39:08.214Z,6.70
2018-08-17T15:40:08.182Z,10.20
2018-08-17T15:41:08.249Z,5.20
2018-08-17T15:42:08.156Z,25.30
2018-08-17T15:43:08.151Z,5.10
2018-08-17T15:44:08.144Z,8.90
2018-08-17T15:45:08.139Z,8.00
2018-08-17T15:46:08.133Z,7.20
2018-08-17T15:47:08.108Z,17.50
2018-08-17T15:48:08.095Z,21.60
2018-08-17T15:49:08.084Z,22.60
2018-08-17T15:50:08.076Z,3.50
2018-08-17T15:51:08.173Z,7.70
2018-08-17T15:52:08.067Z,10.50
2018-08-17T15:53:08.051Z,3.00
2018-08-17T15:54:08.031Z,14.40
2018-08-17T15:55:08.020Z,6.20
2018-08-17T15:56:08.078Z,10.40
2018-08-17T15:57:08.030Z,4.00
2018-08-17T15:58:08.053Z,3.80
2018-08-17T15:59:07.978Z,11.50
2018-08-17T16:00:07.965Z,3.50
2018-08-17T16:01:07.992Z,3.70
2018-08-17T16:02:07.960Z,14.80
2018-08-17T16:03:07.934Z,5.40
2018-08-17T16:04:07.944Z,8.00
2018-08-17T16:05:07.920Z,7.60
2018-08-17T16:06:07.902Z,4.30
2018-08-17T16:07:07.901Z,5.10
2018-08-17T16:08:07.883Z,4.80
2018-08-17T16:09:07.872Z,3.10
2018-08-17T16:10:07.879Z,6.00
2018-08-17T16:11:07.848Z,18.20
2018-08-17T16:12:07.849Z,9.10
2018-08-17T16:13:07.833Z,7.60
2018-08-17T16:14:07.815Z,11.40
2018-08-17T16:15:07.807Z,12.80
2018-08-17T16:16:07.820Z,11.50
2018-08-17T16:17:07.795Z,9.30
2018-08-17T16:18:07.773Z,9.80
2018-08-17T16:19:07.762Z,13.40
2018-08-17T16:20:07.748Z,26.40
2018-08-17T16:21:07.743Z,7.70
2018-08-17T16:22:07.762Z,5.00
2018-08-17T16:23:07.717Z,3.40
2018-08-17T16:24:07.708Z,16.10
2018-08-17T16:25:07.706Z,5.50
2018-08-17T16:26:07.690Z,13.30
2018-08-17T16:27:07.683Z,10.90
2018-08-17T16:28:07.685Z,15.10
2018-08-17T16:29:07.649Z,29.50
2018-08-17T16:30:07.645Z,39.90
2018-08-17T16:31:07.632Z,96.50
2018-08-17T16:32:07.646Z,97.00
2018-08-17T16:33:07.626Z,33.70
2018-08-17T16:34:07.619Z,129.30
2018-08-17T16:35:07.591Z,60.00
2018-08-17T16:36:07.580Z,12.60
2018-08-17T16:37:07.575Z,71.30
2018-08-17T16:38:07.576Z,45.30
2018-08-17T16:39:07.541Z,26.10
2018-08-17T16:40:07.555Z,16.80
2018-08-17T16:41:07.516Z,46.00
2018-08-17T16:42:07.515Z,126.60
2018-08-17T16:43:07.508Z,36.40
2018-08-17T16:44:07.503Z,48.30
2018-08-17T16:45:07.490Z,38.70
2018-08-17T16:46:07.495Z,20.30
2018-08-17T16:47:07.461Z,17.20
2018-08-17T16:48:07.448Z,16.60
2018-08-17T16:49:07.460Z,28.90
2018-08-17T16:50:07.428Z,41.60
2018-08-17T16:51:07.418Z,15.60
2018-08-17T16:52:07.424Z,37.40
2018-08-17T16:53:07.411Z,27.90
2018-08-17T16:54:07.402Z,30.30
2018-08-17T16:55:07.376Z,31.00
2018-08-17T16:56:07.361Z,26.00
2018-08-17T16:57:07.359Z,14.70
2018-08-17T16:58:07.352Z,18.40
2018-08-17T16:59:07.524Z,9.60
2018-08-17T17:00:07.317Z,15.20
2018-08-17T17:01:07.887Z,27.50
2018-08-17T17:02:07.301Z,9.70
2018-08-17T17:03:07.288Z,33.00
2018-08-17T17:04:07.455Z,13.50
2018-08-17T17:05:07.261Z,22.60
2018-08-17T17:06:07.276Z,15.00
2018-08-17T17:07:07.242Z,9.50
2018-08-17T17:08:07.239Z,9.20
2018-08-17T17:09:07.261Z,10.20
2018-08-17T17:10:07.253Z,16.40
2018-08-17T17:11:07.189Z,9.90
2018-08-17T17:12:07.189Z,10.90
2018-08-17T17:13:07.170Z,27.90
2018-08-17T17:14:07.216Z,9.40
2018-08-17T17:15:07.153Z,21.40
2018-08-17T17:16:07.160Z,10.30
2018-08-17T17:17:07.131Z,2.90
2018-08-17T17:18:07.125Z,9.60
2018-08-17T17:19:07.121Z,16.10
2018-08-17T17:20:07.103Z,3.00
2018-08-17T17:21:07.088Z,6.80
2018-08-17T17:22:07.090Z,8.20
2018-08-17T17:23:07.065Z,9.30
2018-08-17T17:24:07.073Z,157.80
2018-08-17T17:25:07.049Z,7.70
2018-08-17T17:26:07.034Z,9.10
2018-08-17T17:27:07.077Z,26.60
2018-08-17T17:28:07.026Z,15.50
2018-08-17T17:29:07.033Z,28.60
2018-08-17T17:30:07.044Z,13.10
2018-08-17T17:31:06.982Z,100.90
2018-08-17T17:32:06.986Z,37.80
2018-08-17T17:33:06.962Z,57.30
2018-08-17T17:34:06.964Z,40.80
2018-08-17T17:35:06.960Z,78.40
2018-08-17T17:36:06.928Z,29.10
2018-08-17T17:37:06.913Z,18.00
2018-08-17T17:38:06.900Z,56.40
2018-08-17T17:39:06.893Z,6.40
2018-08-17T17:40:06.897Z,33.90
2018-08-17T17:41:06.881Z,44.50
2018-08-17T17:42:06.859Z,119.60
2018-08-17T17:43:06.844Z,20.80
2018-08-17T17:44:06.835Z,11.60
2018-08-17T17:45:06.822Z,18.30
2018-08-17T17:46:06.860Z,31.90
2018-08-17T17:47:06.804Z,11.10
2018-08-17T17:48:06.792Z,5.80
2018-08-17T17:49:06.785Z,14.80
2018-08-17T17:50:06.775Z,35.60
2018-08-17T17:51:06.787Z,14.00
2018-08-17T17:52:06.764Z,22.40
2018-08-17T17:53:06.747Z,50.50
2018-08-17T17:54:06.733Z,29.20
2018-08-17T17:55:06.714Z,15.40
2018-08-17T17:56:06.718Z,23.20
2018-08-17T17:57:06.696Z,43.70
2018-08-17T17:58:06.712Z,23.80
2018-08-17T17:59:06.667Z,25.00
2018-08-17T18:00:06.666Z,10.00
2018-08-17T18:01:06.663Z,6.00
2018-08-17T18:02:06.641Z,10.00
2018-08-17T18:03:06.631Z,11.60
2018-08-17T18:04:06.633Z,10.40
2018-08-17T18:05:06.607Z,19.20
2018-08-17T18:06:06.612Z,13.50
2018-08-17T18:07:06.588Z,15.40
2018-08-17T18:08:06.574Z,14.80
2018-08-17T18:09:06.569Z,10.80
2018-08-17T18:10:06.573Z,9.40
2018-08-17T18:11:06.558Z,4.70
2018-08-17T18:12:06.532Z,7.70
2018-08-17T18:13:06.611Z,12.80
2018-08-17T18:14:06.507Z,22.40
2018-08-17T18:15:06.500Z,38.90
2018-08-17T18:16:06.517Z,30.00
2018-08-17T18:17:06.470Z,29.80
2018-08-17T18:18:06.466Z,8.20
2018-08-17T18:19:06.449Z,10.70
2018-08-17T18:20:06.436Z,11.00
2018-08-17T18:21:06.439Z,15.10
2018-08-17T18:22:06.431Z,46.20
2018-08-17T18:23:06.407Z,32.30
2018-08-17T18:24:06.418Z,153.00
2018-08-17T18:25:06.383Z,90.10
2018-08-17T18:26:06.383Z,147.40
2018-08-17T18:27:06.356Z,205.10
2018-08-17T18:28:06.359Z,221.20
2018-08-17T18:29:06.336Z,92.00
2018-08-17T18:30:06.326Z,240.30
2018-08-17T18:31:06.312Z,234.90
2018-08-17T18:32:06.318Z,111.10
2018-08-17T18:33:06.288Z,28.70
2018-08-17T18:34:06.293Z,81.70
2018-08-17T18:35:06.307Z,258.30
2018-08-17T18:36:06.260Z,201.10
2018-08-17T18:37:06.244Z,123.90
2018-08-17T18:38:06.250Z,52.80
2018-08-17T18:39:06.226Z,136.70
2018-08-17T18:40:06.223Z,72.10
2018-08-17T18:41:06.192Z,68.30
2018-08-17T18:42:06.181Z,23.40
2018-08-17T18:43:06.194Z,38.70
2018-08-17T18:44:06.158Z,7.70
2018-08-17T18:45:06.150Z,16.30
2018-08-17T18:46:06.152Z,6.70
2018-08-17T18:47:06.127Z,16.40
2018-08-17T18:48:06.114Z,38.50
2018-08-17T18:49:06.126Z,21.00
2018-08-17T18:50:06.101Z,13.40
2018-08-17T18:51:06.080Z,7.50
2018-08-17T18:52:06.097Z,22.30
2018-08-17T18:53:06.070Z,17.10
2018-08-17T18:54:06.049Z,40.70
2018-08-17T18:55:06.064Z,15.40
2018-08-17T18:56:06.026Z,10.90
2018-08-17T18:57:06.028Z,14.20
2018-08-17T18:58:06.024Z,14.30
2018-08-17T18:59:06.048Z,6.20
2018-08-17T19:00:06.012Z,7.80
2018-08-17T19:01:05.970Z,18.50
2018-08-17T19:02:05.950Z,13.50
2018-08-17T19:03:05.948Z,9.40
2018-08-17T19:04:05.942Z,15.30
2018-08-17T19:05:05.920Z,14.20
2018-08-17T19:06:05.927Z,10.20
2018-08-17T19:07:05.903Z,5.50
2018-08-17T19:08:05.896Z,12.50
2018-08-17T19:09:05.872Z,14.10
2018-08-17T19:10:05.896Z,6.70
2018-08-17T19:11:05.883Z,7.80
2018-08-17T19:12:05.844Z,6.20
2018-08-17T19:13:05.838Z,7.50
2018-08-17T19:14:05.826Z,7.10
2018-08-17T19:15:05.813Z,3.90
2018-08-17T19:16:05.924Z,6.00
2018-08-17T19:17:05.790Z,9.00
2018-08-17T19:18:05.814Z,6.50
2018-08-17T19:19:05.776Z,6.80
2018-08-17T19:20:05.764Z,12.00
2018-08-17T19:21:06.449Z,7.40
2018-08-17T19:22:05.756Z,6.00
2018-08-17T19:23:05.731Z,5.40
2018-08-17T19:24:05.736Z,6.60
2018-08-17T19:25:05.703Z,5.00
2018-08-17T19:26:05.692Z,7.50
2018-08-17T19:27:05.708Z,5.80
2018-08-17T19:28:05.681Z,5.80
2018-08-17T19:29:05.660Z,5.00
2018-08-17T19:30:05.648Z,9.00
2018-08-17T19:31:05.637Z,8.20
2018-08-17T19:32:05.649Z,5.30
2018-08-17T19:33:05.632Z,5.40
2018-08-17T19:34:06.421Z,9.90
2018-08-17T19:35:05.595Z,4.40
2018-08-17T19:36:05.578Z,5.00
2018-08-17T19:37:05.572Z,7.00
2018-08-17T19:38:20.123Z,4.20
2018-08-17T19:39:23.834Z,5.00
2018-08-17T19:40:05.704Z,4.70
2018-08-17T19:41:05.578Z,4.90
2018-08-17T19:43:48.912Z,5.30
